Ballerina — SKNY — position and weather

sailwx.info

Track history (hours):
 
Tides and Currents Weather Stations Pressure Air Temp Water Temp Dewpoint Dewpoint Depression Visibility Wind Speed Wind Dir Waves Ship Positions

Ballerina

Last reported at 2014-Dec-18 18:33 UTC. Time now 2014-Dec-19 03:59 UTC.
Position N 59°22' E 018°06'.

Type: Passenger vessel. MMSI: 265550720.

Date/timePositionNaut miles runAvg speedWind from/ knotsBaromVisibWave heightAir tempDewpointWater temp
2014-Dec-18 18:33N 59°22' E 018°06'0 0.2
2014-Dec-18 17:05N 59°22' E 018°06'2 1.9
2014-Dec-18 16:17N 59°24' E 018°06'1 1.7
2014-Dec-18 15:33N 59°22' E 018°06'1 0.1
2014-Dec-18 09:12N 59°22' E 018°07'2 2.3
2014-Dec-18 08:17N 59°24' E 018°06'1 1.8
2014-Dec-18 07:32N 59°22' E 018°06'1 0.6
2014-Dec-18 06:26N 59°22' E 018°06'2 1.8
2014-Dec-18 05:29N 59°23' E 018°06'1 0.1
2014-Dec-17 18:31N 59°22' E 018°06'0 0.0
2014-Dec-17 16:05N 59°22' E 018°06'1 0.5
2014-Dec-17 14:27N 59°22' E 018°06'0 0.1
2014-Dec-17 09:06N 59°22' E 018°06'1 0.7
2014-Dec-17 08:07N 59°23' E 018°06'0 0.5
2014-Dec-17 07:33N 59°22' E 018°06'0 0.1
2014-Dec-17 06:21N 59°22' E 018°06'1 0.7
2014-Dec-17 05:26N 59°23' E 018°06'1 0.1
2014-Dec-16 18:33N 59°22' E 018°06'1 0.5
2014-Dec-16 17:15N 59°21' E 018°06'3 3.9
2014-Dec-16 16:31N 59°24' E 018°08'2 2.1
2014-Dec-16 15:32N 59°23' E 018°06'1 1.0
2014-Dec-16 14:32N 59°22' E 018°06'1 0.1
2014-Dec-16 09:04N 59°22' E 018°06'1 0.7
2014-Dec-16 08:12N 59°23' E 018°06'0 0.6
2014-Dec-16 07:29N 59°22' E 018°06'0 0.4
2014-Dec-16 06:22N 59°22' E 018°06'1 1.0
2014-Dec-16 05:27N 59°23' E 018°06'0 0.0
2014-Dec-15 18:30N 59°23' E 018°06'1 0.5
2014-Dec-15 17:04N 59°22' E 018°06'1 1.8
2014-Dec-15 16:17N 59°23' E 018°06'1 1.5
2014-Dec-15 15:33N 59°22' E 018°06'1 0.1
2014-Dec-15 09:08N 59°22' E 018°06'2 1.6
2014-Dec-15 08:11N 59°23' E 018°06'1 2.1
2014-Dec-15 07:33N 59°22' E 018°06'1 0.6
2014-Dec-15 06:17N 59°23' E 018°06'1 1.1
2014-Dec-15 05:12N 59°21' E 018°06'1 0.1
2014-Dec-14 17:33N 59°22' E 018°06'1 0.5
2014-Dec-14 16:08N 59°22' E 018°06'3 4.0
2014-Dec-14 15:28N 59°24' E 018°08'2 2.1
2014-Dec-14 14:32N 59°23' E 018°06'1 1.1
2014-Dec-14 13:26N 59°22' E 018°06'0 0.1
2014-Dec-14 12:06N 59°22' E 018°06'2 2.2
2014-Dec-14 11:15N 59°23' E 018°06'1 1.5
2014-Dec-14 10:33N 59°22' E 018°06'0 0.0
2014-Dec-13 17:33N 59°23' E 018°06'1 0.8
2014-Dec-13 16:11N 59°22' E 018°06'2 3.4
2014-Dec-13 15:27N 59°24' E 018°08'2 2.1
2014-Dec-13 14:33N 59°22' E 018°06'1 0.7
2014-Dec-13 13:32N 59°22' E 018°06'0 0.1
2014-Dec-13 12:08N 59°22' E 018°06'2 2.5
2014-Dec-13 11:21N 59°23' E 018°07'1 1.1
2014-Dec-13 10:32N 59°23' E 018°06'1 0.8
2014-Dec-13 09:32N 59°22' E 018°06'2 1.2
2014-Dec-13 08:15N 59°23' E 018°06'1 0.1
2014-Dec-12 18:33N 59°22' E 018°06'1 0.6
2014-Dec-12 17:33N 59°22' E 018°06'1 0.9
2014-Dec-12 16:13N 59°23' E 018°05'0 0.4
2014-Dec-12 15:32N 59°23' E 018°06'1 1.2
2014-Dec-12 14:32N 59°22' E 018°06'0 0.0
2014-Dec-12 09:09N 59°22' E 018°06'2 2.6
2014-Dec-12 08:19N 59°24' E 018°07'2 2.0
2014-Dec-12 07:32N 59°22' E 018°06'1 0.5
2014-Dec-12 06:27N 59°22' E 018°06'2 1.8
2014-Dec-12 05:29N 59°23' E 018°06'1 0.1
2014-Dec-11 18:33N 59°22' E 018°06'1 0.6
2014-Dec-11 17:08N 59°22' E 018°06'1 1.7
2014-Dec-11 16:14N 59°23' E 018°06'0 0.7
2014-Dec-11 15:33N 59°23' E 018°06'1 0.7
2014-Dec-11 14:33N 59°22' E 018°06'1 0.1
2014-Dec-11 09:05N 59°22' E 018°06'1 1.5
2014-Dec-11 08:19N 59°24' E 018°07'2 2.0
2014-Dec-11 07:33N 59°22' E 018°06'1 0.5
2014-Dec-11 06:28N 59°22' E 018°06'2 1.5
2014-Dec-11 05:28N 59°23' E 018°06'0 0.0
2014-Dec-10 18:32N 59°23' E 018°06'1 1.0
2014-Dec-10 17:33N 59°22' E 018°06'2 1.2
2014-Dec-10 16:14N 59°23' E 018°06'1 0.8
2014-Dec-10 15:33N 59°23' E 018°06'1 0.2
2014-Dec-10 09:08N 59°22' E 018°06'1 0.4
2014-Dec-10 07:33N 59°22' E 018°06'0 0.2
2014-Dec-10 06:33N 59°22' E 018°06'1 0.9
2014-Dec-10 05:26N 59°23' E 018°06'0 0.0
2014-Dec-09 18:33N 59°23' E 018°06'1 0.9
2014-Dec-09 17:09N 59°22' E 018°06'3 3.4
2014-Dec-09 16:24N 59°24' E 018°08'2 2.1
2014-Dec-09 15:33N 59°23' E 018°06'4 0.6
2014-Dec-09 09:27N 59°20' E 018°11'4 3.9
2014-Dec-09 08:19N 59°23' E 018°06'2 2.5
2014-Dec-09 07:33N 59°22' E 018°06'0 0.1
2014-Dec-09 06:30N 59°22' E 018°06'2 1.5
2014-Dec-09 05:29N 59°23' E 018°06'1 0.1
2014-Dec-08 18:34N 59°22' E 018°06'  
Track history (hours):
 
Tides and Currents Weather Stations Pressure Air Temp Water Temp Dewpoint Dewpoint Depression Visibility Wind Speed Wind Dir Waves Ship Positions

Ballerina

Last reported at 2014-Dec-18 18:33 UTC. Time now 2014-Dec-19 03:59 UTC.
Position N 59°22' E 018°06'.

Type: Passenger vessel. MMSI: 265550720.

Date/timePositionNaut miles runAvg speedWind from/ knotsBaromVisibWave heightAir tempDewpointWater temp
2014-Dec-18 18:33N 59°22' E 018°06'0 0.2
2014-Dec-18 17:05N 59°22' E 018°06'2 1.9
2014-Dec-18 16:17N 59°24' E 018°06'1 1.7
2014-Dec-18 15:33N 59°22' E 018°06'1 0.1
2014-Dec-18 09:12N 59°22' E 018°07'2 2.3
2014-Dec-18 08:17N 59°24' E 018°06'1 1.8
2014-Dec-18 07:32N 59°22' E 018°06'1 0.6
2014-Dec-18 06:26N 59°22' E 018°06'2 1.8
2014-Dec-18 05:29N 59°23' E 018°06'1 0.1
2014-Dec-17 18:31N 59°22' E 018°06'0 0.0
2014-Dec-17 16:05N 59°22' E 018°06'1 0.5
2014-Dec-17 14:27N 59°22' E 018°06'0 0.1
2014-Dec-17 09:06N 59°22' E 018°06'1 0.7
2014-Dec-17 08:07N 59°23' E 018°06'0 0.5
2014-Dec-17 07:33N 59°22' E 018°06'0 0.1
2014-Dec-17 06:21N 59°22' E 018°06'1 0.7
2014-Dec-17 05:26N 59°23' E 018°06'1 0.1
2014-Dec-16 18:33N 59°22' E 018°06'1 0.5
2014-Dec-16 17:15N 59°21' E 018°06'3 3.9
2014-Dec-16 16:31N 59°24' E 018°08'2 2.1
2014-Dec-16 15:32N 59°23' E 018°06'1 1.0
2014-Dec-16 14:32N 59°22' E 018°06'1 0.1
2014-Dec-16 09:04N 59°22' E 018°06'1 0.7
2014-Dec-16 08:12N 59°23' E 018°06'0 0.6
2014-Dec-16 07:29N 59°22' E 018°06'0 0.4
2014-Dec-16 06:22N 59°22' E 018°06'1 1.0
2014-Dec-16 05:27N 59°23' E 018°06'0 0.0
2014-Dec-15 18:30N 59°23' E 018°06'1 0.5
2014-Dec-15 17:04N 59°22' E 018°06'1 1.8
2014-Dec-15 16:17N 59°23' E 018°06'1 1.5
2014-Dec-15 15:33N 59°22' E 018°06'1 0.1
2014-Dec-15 09:08N 59°22' E 018°06'2 1.6
2014-Dec-15 08:11N 59°23' E 018°06'1 2.1
2014-Dec-15 07:33N 59°22' E 018°06'1 0.6
2014-Dec-15 06:17N 59°23' E 018°06'1 1.1
2014-Dec-15 05:12N 59°21' E 018°06'1 0.1
2014-Dec-14 17:33N 59°22' E 018°06'1 0.5
2014-Dec-14 16:08N 59°22' E 018°06'3 4.0
2014-Dec-14 15:28N 59°24' E 018°08'2 2.1
2014-Dec-14 14:32N 59°23' E 018°06'1 1.1
2014-Dec-14 13:26N 59°22' E 018°06'0 0.1
2014-Dec-14 12:06N 59°22' E 018°06'2 2.2
2014-Dec-14 11:15N 59°23' E 018°06'1 1.5
2014-Dec-14 10:33N 59°22' E 018°06'0 0.0
2014-Dec-13 17:33N 59°23' E 018°06'1 0.8
2014-Dec-13 16:11N 59°22' E 018°06'2 3.4
2014-Dec-13 15:27N 59°24' E 018°08'2 2.1
2014-Dec-13 14:33N 59°22' E 018°06'1 0.7
2014-Dec-13 13:32N 59°22' E 018°06'0 0.1
2014-Dec-13 12:08N 59°22' E 018°06'2 2.5
2014-Dec-13 11:21N 59°23' E 018°07'1 1.1
2014-Dec-13 10:32N 59°23' E 018°06'1 0.8
2014-Dec-13 09:32N 59°22' E 018°06'2 1.2
2014-Dec-13 08:15N 59°23' E 018°06'1 0.1
2014-Dec-12 18:33N 59°22' E 018°06'1 0.6
2014-Dec-12 17:33N 59°22' E 018°06'1 0.9
2014-Dec-12 16:13N 59°23' E 018°05'0 0.4
2014-Dec-12 15:32N 59°23' E 018°06'1 1.2
2014-Dec-12 14:32N 59°22' E 018°06'0 0.0
2014-Dec-12 09:09N 59°22' E 018°06'2 2.6
2014-Dec-12 08:19N 59°24' E 018°07'2 2.0
2014-Dec-12 07:32N 59°22' E 018°06'1 0.5
2014-Dec-12 06:27N 59°22' E 018°06'2 1.8
2014-Dec-12 05:29N 59°23' E 018°06'1 0.1
2014-Dec-11 18:33N 59°22' E 018°06'1 0.6
2014-Dec-11 17:08N 59°22' E 018°06'1 1.7
2014-Dec-11 16:14N 59°23' E 018°06'0 0.7
2014-Dec-11 15:33N 59°23' E 018°06'1 0.7
2014-Dec-11 14:33N 59°22' E 018°06'1 0.1
2014-Dec-11 09:05N 59°22' E 018°06'1 1.5
2014-Dec-11 08:19N 59°24' E 018°07'2 2.0
2014-Dec-11 07:33N 59°22' E 018°06'1 0.5
2014-Dec-11 06:28N 59°22' E 018°06'2 1.5
2014-Dec-11 05:28N 59°23' E 018°06'0 0.0
2014-Dec-10 18:32N 59°23' E 018°06'1 1.0
2014-Dec-10 17:33N 59°22' E 018°06'2 1.2
2014-Dec-10 16:14N 59°23' E 018°06'1 0.8
2014-Dec-10 15:33N 59°23' E 018°06'1 0.2
2014-Dec-10 09:08N 59°22' E 018°06'1 0.4
2014-Dec-10 07:33N 59°22' E 018°06'0 0.2
2014-Dec-10 06:33N 59°22' E 018°06'1 0.9
2014-Dec-10 05:26N 59°23' E 018°06'0 0.0
2014-Dec-09 18:33N 59°23' E 018°06'1 0.9
2014-Dec-09 17:09N 59°22' E 018°06'3 3.4
2014-Dec-09 16:24N 59°24' E 018°08'2 2.1
2014-Dec-09 15:33N 59°23' E 018°06'4 0.6
2014-Dec-09 09:27N 59°20' E 018°11'4 3.9
2014-Dec-09 08:19N 59°23' E 018°06'2 2.5
2014-Dec-09 07:33N 59°22' E 018°06'0 0.1
2014-Dec-09 06:30N 59°22' E 018°06'2 1.5
2014-Dec-09 05:29N 59°23' E 018°06'1 0.1
2014-Dec-08 18:34N 59°22' E 018°06'  

Dump ship's entire track history